Time;durP1;ratioP1;P1;durP2;ratioP2;P2;SDS_P1;SDS_P2;PMS_P1;PMS_P2;Temp;Humidity;BMP_temperature;BMP_pressure;BME280_temperature;BME280_humidity;BME280_pressure;Samples;Min_cycle;Max_cycle;Signal;HPM_P1;HPM_P2
2021/01/23 00:01:26;;;;;;;7.32;4.30;;;10.40;58.10;;;;;;5036472;28;20029;-75
2021/01/23 00:03:53;;;;;;;7.95;4.80;;;10.40;57.90;;;;;;5053673;28;20051;-74
2021/01/23 00:06:19;;;;;;;6.00;4.05;;;10.50;57.90;;;;;;5036407;28;20505;-75
2021/01/23 00:08:44;;;;;;;5.68;3.85;;;10.50;57.90;;;;;;5054223;28;20029;-77
2021/01/23 00:11:10;;;;;;;7.35;4.55;;;10.50;57.80;;;;;;5052930;28;20021;-77
2021/01/23 00:13:37;;;;;;;9.55;5.03;;;10.50;57.70;;;;;;5051320;28;20485;-74
2021/01/23 00:16:03;;;;;;;9.00;5.85;;;10.60;57.60;;;;;;5036231;28;20064;-76
2021/01/23 00:18:28;;;;;;;7.30;4.43;;;10.50;57.50;;;;;;5053208;28;20040;-76
2021/01/23 00:20:54;;;;;;;8.75;4.60;;;10.50;57.40;;;;;;5053969;28;20017;-77
2021/01/23 00:23:20;;;;;;;8.13;5.20;;;10.50;57.30;;;;;;5053466;28;20394;-77
2021/01/23 00:25:46;;;;;;;7.63;4.43;;;10.50;57.30;;;;;;5053428;28;20075;-75
2021/01/23 00:28:11;;;;;;;8.23;4.65;;;10.50;57.40;;;;;;5053380;28;20021;-77
2021/01/23 00:30:37;;;;;;;5.88;3.60;;;10.40;57.30;;;;;;5053693;28;20053;-75
2021/01/23 00:33:03;;;;;;;4.53;2.65;;;10.40;57.30;;;;;;5053210;28;20025;-75
2021/01/23 00:35:29;;;;;;;3.80;2.60;;;10.40;57.40;;;;;;5044681;28;20115;-76
2021/01/23 00:37:54;;;;;;;3.08;2.30;;;10.40;57.40;;;;;;5056610;28;20028;-77
2021/01/23 00:40:20;;;;;;;3.05;1.83;;;10.40;57.40;;;;;;5044220;28;20064;-76
2021/01/23 00:42:46;;;;;;;2.95;1.73;;;10.40;57.40;;;;;;5048724;28;20056;-77
2021/01/23 00:45:13;;;;;;;3.08;1.92;;;10.40;57.50;;;;;;5051559;28;20061;-75
2021/01/23 00:47:39;;;;;;;2.65;1.58;;;10.30;57.40;;;;;;5053014;28;20119;-76
2021/01/23 00:50:05;;;;;;;4.18;1.50;;;10.30;57.50;;;;;;5043185;28;20026;-75
2021/01/23 00:52:31;;;;;;;1.92;1.40;;;10.30;57.40;;;;;;5031586;28;20446;-76
2021/01/23 00:54:59;;;;;;;2.20;1.35;;;10.30;57.40;;;;;;5043269;28;20029;-75
2021/01/23 00:57:25;;;;;;;2.80;1.23;;;10.30;57.40;;;;;;5024252;28;20432;-77
2021/01/23 00:59:51;;;;;;;1.92;1.30;;;10.30;57.40;;;;;;5039490;28;20025;-75
2021/01/23 01:02:16;;;;;;;1.63;1.20;;;10.30;57.50;;;;;;5047731;28;20052;-74
2021/01/23 01:04:42;;;;;;;2.55;1.15;;;10.30;57.50;;;;;;5052049;28;20107;-77
2021/01/23 01:07:08;;;;;;;2.55;1.50;;;10.30;57.50;;;;;;5054831;28;20063;-76
2021/01/23 01:09:33;;;;;;;1.73;1.20;;;10.30;57.50;;;;;;5051838;28;20029;-74
2021/01/23 01:11:59;;;;;;;3.15;1.92;;;10.30;57.40;;;;;;5051015;28;20026;-75
2021/01/23 01:14:25;;;;;;;3.90;2.35;;;10.30;57.40;;;;;;5053974;28;20100;-76
2021/01/23 01:16:51;;;;;;;3.65;2.25;;;10.30;57.60;;;;;;5046202;28;20029;-76
2021/01/23 01:19:16;;;;;;;4.40;2.75;;;10.40;57.70;;;;;;5023152;28;20390;-75
2021/01/23 01:21:42;;;;;;;7.85;3.45;;;10.40;57.70;;;;;;5035115;28;20024;-78
2021/01/23 01:24:08;;;;;;;4.50;2.95;;;10.40;57.60;;;;;;5050316;28;20048;-76
2021/01/23 01:26:34;;;;;;;9.35;5.47;;;10.50;57.80;;;;;;5025298;28;20125;-76
2021/01/23 01:29:00;;;;;;;9.05;5.13;;;10.50;57.70;;;;;;5052414;28;20104;-75
2021/01/23 01:31:25;;;;;;;12.13;6.40;;;10.60;57.70;;;;;;5052218;28;20075;-77
2021/01/23 01:33:51;;;;;;;11.00;5.75;;;10.60;57.60;;;;;;5034585;28;20029;-75
2021/01/23 01:36:17;;;;;;;9.27;5.18;;;10.70;57.40;;;;;;5046516;28;20033;-77
2021/01/23 01:38:43;;;;;;;5.32;3.35;;;10.70;57.40;;;;;;5050420;28;20541;-77
2021/01/23 01:41:08;;;;;;;5.50;3.50;;;10.70;57.50;;;;;;5052667;28;20029;-75
2021/01/23 01:43:34;;;;;;;4.53;2.70;;;10.70;57.30;;;;;;5052216;28;20071;-75
2021/01/23 01:46:02;;;;;;;4.68;2.35;;;10.70;57.30;;;;;;5052557;28;20028;-77
2021/01/23 01:48:28;;;;;;;3.70;2.28;;;10.70;57.40;;;;;;5052076;28;20118;-77
2021/01/23 01:50:54;;;;;;;3.13;2.10;;;10.70;57.40;;;;;;5050824;28;20021;-75
2021/01/23 01:53:21;;;;;;;4.22;2.50;;;10.80;57.40;;;;;;5040233;28;20127;-76
2021/01/23 01:55:49;;;;;;;6.30;2.58;;;10.80;57.50;;;;;;5044489;28;20151;-76
2021/01/23 01:58:15;;;;;;;5.75;3.58;;;10.80;57.60;;;;;;5034457;28;20032;-77
2021/01/23 02:00:41;;;;;;;6.93;4.15;;;10.80;58.10;;;;;;5052121;28;20029;-77
2021/01/23 02:03:22;;;;;;;7.85;4.22;;;10.80;57.40;;;;;;5051362;28;20036;-75
2021/01/23 02:06:09;;;;;;;5.10;3.50;;;10.80;57.40;;;;;;5051903;28;20111;-77
2021/01/23 02:08:51;;;;;;;11.25;4.22;;;10.80;57.40;;;;;;5047999;28;20081;-75
2021/01/23 02:11:40;;;;;;;6.88;4.10;;;10.90;57.40;;;;;;5055917;28;20021;-77
2021/01/23 02:14:24;;;;;;;7.97;4.38;;;10.80;57.30;;;;;;5056988;28;20052;-75
2021/01/23 02:16:52;;;;;;;9.65;4.38;;;10.80;57.30;;;;;;5057206;28;20039;-75
2021/01/23 02:19:31;;;;;;;8.40;4.72;;;10.80;57.40;;;;;;5052026;28;20087;-77
2021/01/23 02:21:57;;;;;;;8.23;4.65;;;10.80;57.50;;;;;;5051659;28;20032;-76
2021/01/23 02:24:26;;;;;;;12.25;5.55;;;10.80;57.40;;;;;;5056809;28;20032;-77
2021/01/23 02:26:58;;;;;;;7.75;4.25;;;10.80;57.40;;;;;;5056792;28;20031;-78
2021/01/23 02:30:00;;;;;;;10.55;6.60;;;10.80;57.70;;;;;;5056772;28;20037;-79
2021/01/23 02:32:30;;;;;;;11.32;6.35;;;10.80;57.30;;;;;;5030524;28;20034;-78
2021/01/23 02:34:58;;;;;;;6.28;3.83;;;10.80;57.10;;;;;;5052089;28;20064;-75
2021/01/23 02:37:25;;;;;;;5.63;4.40;;;10.80;57.70;;;;;;5053810;28;20025;-77
2021/01/23 02:39:52;;;;;;;6.97;3.83;;;10.80;57.00;;;;;;5056549;28;20521;-76
2021/01/23 02:42:18;;;;;;;6.07;3.13;;;10.80;57.00;;;;;;5056560;28;20470;-75
2021/01/23 02:44:44;;;;;;;6.50;2.60;;;10.70;57.20;;;;;;5056892;28;20036;-76
2021/01/23 02:47:09;;;;;;;3.05;1.95;;;10.70;57.20;;;;;;5056628;28;20370;-75
2021/01/23 02:49:35;;;;;;;5.07;1.58;;;10.70;57.20;;;;;;5046389;28;20100;-75
2021/01/23 02:52:05;;;;;;;2.03;1.40;;;10.70;57.20;;;;;;5055702;28;20466;-77
2021/01/23 02:55:01;;;;;;;2.30;1.08;;;10.70;57.30;;;;;;5056590;28;20104;-76
2021/01/23 02:57:27;;;;;;;2.47;1.33;;;10.70;57.40;;;;;;5056807;28;20028;-75
2021/01/23 02:59:58;;;;;;;1.48;1.08;;;10.70;57.60;;;;;;5050401;28;20025;-77
2021/01/23 03:02:25;;;;;;;1.42;1.10;;;10.70;57.70;;;;;;5046964;28;20128;-77
2021/01/23 03:04:52;;;;;;;1.60;1.08;;;10.70;57.60;;;;;;5044198;28;20030;-75
2021/01/23 03:07:18;;;;;;;1.77;0.93;;;10.70;57.70;;;;;;5034242;28;20123;-76
2021/01/23 03:09:44;;;;;;;2.03;1.00;;;10.80;57.80;;;;;;5042504;28;20104;-77
2021/01/23 03:12:11;;;;;;;1.23;0.93;;;10.80;57.70;;;;;;5055980;28;20127;-75
2021/01/23 03:14:37;;;;;;;1.20;0.70;;;10.90;57.50;;;;;;5055830;28;20482;-76
2021/01/23 03:17:03;;;;;;;0.95;0.50;;;10.90;57.50;;;;;;5055949;28;20395;-77
2021/01/23 03:19:29;;;;;;;2.30;0.70;;;10.90;57.40;;;;;;5048071;28;20014;-75
2021/01/23 03:21:55;;;;;;;1.50;1.05;;;10.90;57.30;;;;;;5055747;28;20017;-75
2021/01/23 03:24:21;;;;;;;2.33;1.55;;;10.80;57.30;;;;;;5055693;28;20029;-76
2021/01/23 03:26:48;;;;;;;3.42;1.70;;;10.80;57.10;;;;;;5051310;28;20398;-75
2021/01/23 03:29:16;;;;;;;3.95;1.50;;;10.80;57.00;;;;;;5051489;28;20479;-77
2021/01/23 03:31:42;;;;;;;5.68;1.90;;;10.80;57.20;;;;;;5053697;28;20025;-75
2021/01/23 03:34:07;;;;;;;2.78;1.67;;;10.70;57.20;;;;;;5048242;28;20057;-77
2021/01/23 03:36:35;;;;;;;2.60;1.58;;;10.70;57.20;;;;;;5055564;28;20064;-77
2021/01/23 03:39:01;;;;;;;4.93;2.50;;;10.70;57.30;;;;;;5055630;28;20414;-76
2021/01/23 03:41:27;;;;;;;5.50;2.95;;;10.60;57.20;;;;;;5055586;28;20108;-75
2021/01/23 03:43:53;;;;;;;4.28;2.63;;;10.70;57.40;;;;;;5051312;28;20037;-76
2021/01/23 03:46:18;;;;;;;7.40;3.35;;;10.70;57.40;;;;;;5054996;28;20047;-76
2021/01/23 03:48:44;;;;;;;5.07;2.55;;;10.80;57.00;;;;;;5050552;28;20029;-76
2021/01/23 03:51:10;;;;;;;4.25;2.85;;;10.80;56.70;;;;;;5021110;28;20030;-76
2021/01/23 03:53:36;;;;;;;9.18;2.80;;;10.90;56.60;;;;;;5053861;28;20021;-75
2021/01/23 03:56:02;;;;;;;7.20;3.08;;;10.90;56.40;;;;;;5055216;28;20029;-75
2021/01/23 03:58:27;;;;;;;3.85;3.17;;;11.00;56.30;;;;;;5050338;28;20036;-75
2021/01/23 04:00:54;;;;;;;8.15;4.82;;;11.00;55.90;;;;;;5053069;28;20032;-75
2021/01/23 04:03:19;;;;;;;7.88;4.40;;;11.00;55.90;;;;;;5052918;28;20500;-77
2021/01/23 04:05:45;;;;;;;11.18;7.13;;;11.00;55.40;;;;;;5055103;28;20029;-76
2021/01/23 04:08:11;;;;;;;18.23;8.63;;;10.90;54.50;;;;;;5054485;28;20031;-75
2021/01/23 04:10:37;;;;;;;12.90;8.73;;;10.90;54.00;;;;;;5046190;28;20083;-75
2021/01/23 04:13:04;;;;;;;13.35;9.45;;;10.80;53.50;;;;;;5054659;28;20110;-76
2021/01/23 04:15:30;;;;;;;19.75;10.00;;;10.70;53.60;;;;;;5048251;28;20356;-76
2021/01/23 04:17:56;;;;;;;16.65;9.85;;;10.70;53.50;;;;;;5054722;28;20033;-76
2021/01/23 04:20:22;;;;;;;15.48;10.48;;;10.60;53.50;;;;;;5054887;28;20128;-74
2021/01/23 04:22:48;;;;;;;17.38;11.02;;;10.50;53.50;;;;;;5054222;28;20037;-76
2021/01/23 04:25:14;;;;;;;18.58;11.57;;;10.40;53.60;;;;;;5049219;28;20029;-77
2021/01/23 04:27:41;;;;;;;17.30;9.82;;;10.30;53.70;;;;;;5050759;28;20021;-75
2021/01/23 04:30:09;;;;;;;14.10;10.13;;;10.20;53.80;;;;;;5051033;28;20051;-75
2021/01/23 04:32:36;;;;;;;16.80;11.10;;;10.10;53.90;;;;;;5054307;28;20021;-74
2021/01/23 04:35:04;;;;;;;18.40;11.00;;;10.10;54.10;;;;;;5054604;28;20025;-74
2021/01/23 04:37:30;;;;;;;18.52;11.23;;;10.10;54.40;;;;;;5050598;28;20043;-74
2021/01/23 04:39:55;;;;;;;15.95;11.32;;;10.00;54.30;;;;;;5036450;28;20500;-77
2021/01/23 04:42:21;;;;;;;18.83;12.30;;;10.00;54.60;;;;;;5054319;28;20050;-75
2021/01/23 04:44:47;;;;;;;17.90;11.40;;;9.90;54.50;;;;;;5051708;28;20021;-76
2021/01/23 04:47:14;;;;;;;18.25;10.90;;;9.90;54.70;;;;;;5052255;28;20509;-77
2021/01/23 04:49:39;;;;;;;15.05;10.68;;;9.90;54.70;;;;;;5045418;28;20033;-75
2021/01/23 04:52:06;;;;;;;19.23;12.65;;;9.90;54.80;;;;;;5049647;28;20025;-75
2021/01/23 04:54:33;;;;;;;16.92;11.25;;;9.80;54.90;;;;;;5022797;28;20029;-75
2021/01/23 04:57:01;;;;;;;20.80;12.77;;;9.80;55.20;;;;;;5047808;28;20021;-76
2021/01/23 04:59:27;;;;;;;21.45;12.90;;;9.80;55.40;;;;;;5049400;28;20024;-75
2021/01/23 05:02:18;;;;;;;21.42;14.10;;;9.80;55.50;;;;;;5054145;28;20029;-77
2021/01/23 05:04:46;;;;;;;19.40;13.20;;;9.70;55.70;;;;;;5053669;28;20039;-77
2021/01/23 05:07:23;;;;;;;19.80;12.73;;;9.70;56.10;;;;;;5053688;28;20410;-77
2021/01/23 05:09:49;;;;;;;21.42;13.00;;;9.70;56.30;;;;;;5054269;28;20017;-77
2021/01/23 05:12:34;;;;;;;17.10;12.02;;;9.70;56.40;;;;;;5049401;28;20489;-75
2021/01/23 05:15:00;;;;;;;17.05;12.40;;;9.60;56.70;;;;;;5053838;28;20021;-75
2021/01/23 05:17:26;;;;;;;19.17;13.90;;;9.60;56.90;;;;;;5050894;28;20026;-74
2021/01/23 05:19:51;;;;;;;21.48;14.57;;;9.60;57.10;;;;;;5049550;28;20048;-77
2021/01/23 05:22:17;;;;;;;22.30;14.27;;;9.60;57.60;;;;;;5049554;28;20060;-75
2021/01/23 05:24:52;;;;;;;18.58;13.32;;;9.60;58.10;;;;;;5033759;28;20041;-76
2021/01/23 05:27:18;;;;;;;19.92;14.27;;;9.50;58.40;;;;;;5046691;28;20017;-75
2021/01/23 05:29:58;;;;;;;20.50;13.75;;;9.50;59.20;;;;;;5053442;28;20051;-75
2021/01/23 05:32:25;;;;;;;21.60;13.15;;;9.40;59.90;;;;;;5051791;28;20410;-74
2021/01/23 05:34:51;;;;;;;29.45;12.25;;;9.30;60.90;;;;;;5053539;28;20031;-74
2021/01/23 05:37:37;;;;;;;16.02;11.05;;;9.20;62.20;;;;;;5053314;28;20474;-74
2021/01/23 05:40:04;;;;;;;21.77;10.20;;;9.10;62.50;;;;;;5052898;28;20025;-72
2021/01/23 05:42:30;;;;;;;14.38;7.05;;;9.00;63.00;;;;;;5051603;28;20032;-76
2021/01/23 05:45:13;;;;;;;9.20;5.32;;;8.80;63.90;;;;;;5034395;28;20025;-75
2021/01/23 05:47:40;;;;;;;5.70;4.35;;;8.60;64.80;;;;;;5053175;28;20029;-77
2021/01/23 05:50:08;;;;;;;7.32;4.03;;;8.50;65.30;;;;;;5053525;28;20070;-76
2021/01/23 05:52:34;;;;;;;6.43;4.10;;;8.40;65.90;;;;;;5032658;28;20044;-80
2021/01/23 05:55:01;;;;;;;4.95;3.85;;;8.40;66.30;;;;;;5050488;28;20067;-77
2021/01/23 05:57:28;;;;;;;3.05;2.40;;;8.20;66.50;;;;;;5033142;28;20045;-76
2021/01/23 05:59:54;;;;;;;3.13;2.38;;;8.10;66.90;;;;;;5052639;28;20083;-80
2021/01/23 06:02:22;;;;;;;3.00;2.20;;;8.10;67.10;;;;;;5045081;28;20056;-77
2021/01/23 06:04:49;;;;;;;3.20;2.42;;;8.00;67.30;;;;;;5049300;28;20060;-76
2021/01/23 06:07:40;;;;;;;2.65;1.73;;;7.90;67.60;;;;;;5037442;28;20036;-80
2021/01/23 06:10:21;;;;;;;3.13;1.90;;;7.80;67.40;;;;;;5033703;28;20037;-78
2021/01/23 06:12:51;;;;;;;1.42;1.10;;;7.80;67.90;;;;;;5052933;28;20025;-80
2021/01/23 06:15:32;;;;;;;2.42;1.40;;;7.70;68.20;;;;;;5051450;28;20018;-76
2021/01/23 06:17:58;;;;;;;1.67;1.27;;;7.70;68.50;;;;;;5035179;28;20028;-75
2021/01/23 06:20:42;;;;;;;1.95;1.23;;;7.60;68.80;;;;;;5033504;28;20039;-78
2021/01/23 06:23:13;;;;;;;1.67;1.10;;;7.60;68.60;;;;;;5051395;28;20040;-78
2021/01/23 06:25:51;;;;;;;1.40;0.82;;;7.50;68.40;;;;;;5035043;28;20287;-78
2021/01/23 06:28:37;;;;;;;1.20;0.80;;;7.40;68.00;;;;;;5051800;28;20035;-78
2021/01/23 06:31:22;;;;;;;1.13;0.70;;;7.30;68.30;;;;;;5031409;28;20053;-76
2021/01/23 06:33:50;;;;;;;0.57;0.57;;;7.20;68.10;;;;;;5049903;28;20071;-78
2021/01/23 06:36:16;;;;;;;0.70;0.60;;;7.10;68.40;;;;;;5048862;28;20025;-79
2021/01/23 06:39:00;;;;;;;1.05;0.55;;;7.10;69.00;;;;;;5049772;28;20024;-78
2021/01/23 06:41:26;;;;;;;0.98;0.60;;;7.00;69.10;;;;;;5050279;28;20100;-78
2021/01/23 06:44:06;;;;;;;3.75;0.80;;;7.00;69.40;;;;;;5048203;28;20052;-78
2021/01/23 06:46:48;;;;;;;1.00;0.68;;;7.00;69.70;;;;;;5044450;28;20035;-78
2021/01/23 06:49:14;;;;;;;5.00;0.57;;;7.00;69.90;;;;;;5052848;28;20482;-78
2021/01/23 06:51:44;;;;;;;1.15;0.60;;;7.00;70.10;;;;;;5040265;28;20110;-78
2021/01/23 06:54:20;;;;;;;0.77;0.60;;;6.90;70.10;;;;;;5044411;28;20041;-78
2021/01/23 06:56:52;;;;;;;0.77;0.60;;;7.00;70.30;;;;;;5037152;28;20484;-78
2021/01/23 06:59:27;;;;;;;1.63;0.77;;;6.90;70.40;;;;;;5056710;28;20029;-78
2021/01/23 07:01:59;;;;;;;1.58;0.95;;;6.90;70.50;;;;;;5050868;28;20492;-78
2021/01/23 07:04:27;;;;;;;0.40;0.40;;;6.90;70.60;;;;;;5052334;28;21828;-76
2021/01/23 07:06:54;;;;;;;0.45;0.40;;;6.90;70.50;;;;;;5051017;28;20058;-75
2021/01/23 07:09:20;;;;;;;2.03;0.50;;;6.90;70.30;;;;;;5052152;28;20021;-77
2021/01/23 07:11:46;;;;;;;1.23;0.40;;;6.90;70.60;;;;;;5048148;28;20029;-77
2021/01/23 07:14:12;;;;;;;0.98;0.30;;;6.90;70.60;;;;;;5049039;28;20489;-79
2021/01/23 07:16:39;;;;;;;1.42;0.50;;;6.90;70.70;;;;;;5049807;28;20014;-76
2021/01/23 07:19:08;;;;;;;0.30;0.20;;;6.90;70.70;;;;;;5035761;28;20025;-77
2021/01/23 07:21:38;;;;;;;0.40;0.40;;;6.80;70.60;;;;;;5054426;28;20088;-78
2021/01/23 07:24:04;;;;;;;0.50;0.32;;;6.80;70.60;;;;;;5048849;28;20033;-77
2021/01/23 07:26:31;;;;;;;0.68;0.50;;;6.80;70.50;;;;;;5056122;28;20082;-77
2021/01/23 07:28:57;;;;;;;1.05;0.40;;;6.80;70.70;;;;;;5044728;28;20018;-79
2021/01/23 07:31:31;;;;;;;1.42;0.70;;;6.80;70.90;;;;;;5046223;28;20540;-76
2021/01/23 07:34:01;;;;;;;0.30;0.30;;;6.80;71.10;;;;;;5055950;28;20107;-76
2021/01/23 07:36:27;;;;;;;0.43;0.43;;;6.80;70.80;;;;;;5040223;28;20390;-76
2021/01/23 07:38:53;;;;;;;1.42;0.82;;;6.80;70.90;;;;;;5050907;28;20086;-76
2021/01/23 07:41:19;;;;;;;0.93;0.45;;;6.80;71.00;;;;;;5039383;28;20097;-78
2021/01/23 07:43:47;;;;;;;4.03;0.35;;;6.70;70.90;;;;;;5055377;28;20048;-78
2021/01/23 07:46:13;;;;;;;3.47;0.30;;;6.80;71.00;;;;;;5055323;28;20093;-77
2021/01/23 07:48:41;;;;;;;0.93;0.30;;;6.70;71.10;;;;;;5040334;28;20025;-77
2021/01/23 07:51:07;;;;;;;2.13;0.47;;;6.70;70.80;;;;;;5043610;28;20025;-76
2021/01/23 07:53:33;;;;;;;1.42;0.60;;;6.70;71.30;;;;;;5053812;28;20021;-79
2021/01/23 07:55:59;;;;;;;0.65;0.40;;;6.70;71.70;;;;;;5055401;28;20051;-75
2021/01/23 07:58:29;;;;;;;3.63;1.45;;;6.70;71.70;;;;;;5046740;28;20102;-78
2021/01/23 08:00:58;;;;;;;2.22;1.15;;;6.60;71.30;;;;;;5033392;28;20037;-76
2021/01/23 08:03:44;;;;;;;1.23;0.70;;;6.60;71.30;;;;;;5054817;28;20040;-78
2021/01/23 08:06:23;;;;;;;2.00;0.80;;;6.60;71.30;;;;;;5054904;28;20037;-75
2021/01/23 08:08:49;;;;;;;1.40;0.88;;;6.60;71.50;;;;;;5054209;28;20044;-77
2021/01/23 08:11:36;;;;;;;2.97;1.77;;;6.60;71.30;;;;;;5037216;28;20021;-78
2021/01/23 08:14:09;;;;;;;0.70;0.50;;;6.70;71.40;;;;;;5037199;28;20017;-77
2021/01/23 08:16:35;;;;;;;2.85;0.95;;;6.60;71.00;;;;;;5048792;28;20364;-80
2021/01/23 08:19:06;;;;;;;1.05;0.47;;;6.60;71.10;;;;;;5055298;28;20033;-77
2021/01/23 08:21:31;;;;;;;1.92;0.75;;;6.50;71.00;;;;;;5055186;28;20032;-78
2021/01/23 08:24:00;;;;;;;3.60;0.55;;;6.60;71.30;;;;;;5054834;28;20417;-76
2021/01/23 08:26:39;;;;;;;1.23;0.70;;;6.60;71.40;;;;;;5054786;28;20029;-78
2021/01/23 08:29:05;;;;;;;6.90;0.70;;;6.60;71.60;;;;;;5036808;28;20044;-77
2021/01/23 08:31:31;;;;;;;1.90;0.85;;;6.60;71.60;;;;;;5054716;28;20029;-75
2021/01/23 08:33:57;;;;;;;1.25;0.70;;;6.70;71.80;;;;;;5054683;28;20021;-79
2021/01/23 08:36:28;;;;;;;1.50;1.10;;;6.70;72.50;;;;;;5054540;28;20033;-79
2021/01/23 08:39:06;;;;;;;1.25;0.77;;;6.80;71.70;;;;;;5054516;28;20123;-79
2021/01/23 08:41:35;;;;;;;1.73;0.90;;;6.80;71.80;;;;;;5054472;28;20542;-76
2021/01/23 08:44:02;;;;;;;4.13;0.55;;;6.90;71.70;;;;;;5036441;28;20028;-79
2021/01/23 08:46:28;;;;;;;2.28;0.98;;;7.00;72.00;;;;;;5053023;28;20029;-74
2021/01/23 08:48:56;;;;;;;0.60;0.40;;;7.10;71.60;;;;;;5054624;28;20488;-76
2021/01/23 08:51:22;;;;;;;0.38;0.38;;;7.20;71.70;;;;;;5050138;28;20024;-79
2021/01/23 08:53:48;;;;;;;0.77;0.40;;;7.30;71.60;;;;;;5054296;28;20021;-79
2021/01/23 08:56:15;;;;;;;0.40;0.38;;;7.40;71.10;;;;;;5054357;28;20025;-79
2021/01/23 08:58:41;;;;;;;1.20;0.52;;;7.50;71.00;;;;;;5052671;28;20025;-77
2021/01/23 09:01:08;;;;;;;0.98;0.70;;;7.60;70.40;;;;;;5054448;28;20025;-78
2021/01/23 09:03:34;;;;;;;1.40;0.70;;;7.60;69.80;;;;;;5054265;28;20032;-77
2021/01/23 09:06:00;;;;;;;0.68;0.60;;;7.60;69.20;;;;;;5054053;28;20021;-77
2021/01/23 09:08:25;;;;;;;0.63;0.40;;;7.70;69.00;;;;;;5054002;28;20052;-78
2021/01/23 09:10:51;;;;;;;1.25;0.80;;;7.70;69.20;;;;;;5054226;28;20021;-78
2021/01/23 09:13:17;;;;;;;2.50;1.45;;;7.80;68.80;;;;;;5054010;28;20025;-79
2021/01/23 09:15:43;;;;;;;6.07;1.85;;;7.80;68.50;;;;;;5053801;28;20431;-78
2021/01/23 09:18:09;;;;;;;2.45;1.20;;;7.90;68.70;;;;;;5049364;28;20061;-78
2021/01/23 09:20:34;;;;;;;2.35;1.20;;;8.00;68.70;;;;;;5052375;28;20025;-78
2021/01/23 09:23:00;;;;;;;4.25;1.75;;;8.00;68.40;;;;;;5053972;28;20028;-77
2021/01/23 09:25:26;;;;;;;5.38;2.38;;;8.10;68.40;;;;;;5053723;28;20363;-77
2021/01/23 09:27:52;;;;;;;5.93;2.63;;;8.20;68.00;;;;;;5053720;28;20490;-79
2021/01/23 09:30:18;;;;;;;4.57;1.90;;;8.20;67.00;;;;;;5053463;28;20444;-77
2021/01/23 09:32:43;;;;;;;6.80;1.20;;;8.30;66.60;;;;;;5054193;28;20028;-80
2021/01/23 09:35:11;;;;;;;1.77;0.60;;;8.30;67.10;;;;;;5035848;28;20029;-80
2021/01/23 09:37:37;;;;;;;0.60;0.40;;;8.30;66.60;;;;;;5053672;28;20573;-77
2021/01/23 09:40:04;;;;;;;0.90;0.80;;;8.40;66.80;;;;;;5053611;28;20029;-81
2021/01/23 09:42:30;;;;;;;8.45;4.57;;;8.40;66.80;;;;;;5053549;28;20090;-77
2021/01/23 09:44:55;;;;;;;1.15;0.88;;;8.50;66.90;;;;;;5053361;28;20076;-79
2021/01/23 09:47:22;;;;;;;1.40;0.90;;;8.60;66.00;;;;;;5053736;28;20021;-78
2021/01/23 09:49:48;;;;;;;0.75;0.60;;;8.70;66.20;;;;;;5053976;28;20029;-80
2021/01/23 09:52:14;;;;;;;1.88;0.70;;;8.70;65.20;;;;;;5053782;28;20017;-78
2021/01/23 09:54:40;;;;;;;3.42;1.40;;;8.70;65.10;;;;;;5053729;28;20025;-78
2021/01/23 09:57:06;;;;;;;1.02;0.73;;;8.70;65.30;;;;;;5056822;28;20071;-77
2021/01/23 09:59:32;;;;;;;1.25;0.70;;;8.70;64.80;;;;;;5060629;28;20459;-78
2021/01/23 10:01:59;;;;;;;0.98;0.85;;;8.70;64.70;;;;;;5059202;28;20021;-80
2021/01/23 10:04:26;;;;;;;2.05;0.88;;;8.70;63.60;;;;;;5037140;28;20056;-77
2021/01/23 10:06:52;;;;;;;1.20;0.95;;;8.70;64.00;;;;;;5041932;28;20029;-78
2021/01/23 10:09:17;;;;;;;1.85;1.20;;;8.70;63.90;;;;;;5036697;28;20032;-80
2021/01/23 10:11:44;;;;;;;2.00;0.90;;;8.80;64.50;;;;;;5033394;28;20087;-82
2021/01/23 10:14:10;;;;;;;1.10;0.65;;;8.70;64.10;;;;;;5044234;28;20017;-79
2021/01/23 10:16:35;;;;;;;1.55;1.02;;;8.80;64.20;;;;;;5053352;28;20025;-80
2021/01/23 10:19:04;;;;;;;0.82;0.68;;;8.80;64.30;;;;;;5053490;28;20036;-81
2021/01/23 10:21:30;;;;;;;2.75;0.98;;;8.80;63.20;;;;;;5053210;28;20021;-79
2021/01/23 10:23:57;;;;;;;1.33;0.80;;;8.80;63.10;;;;;;5035334;28;20071;-81
2021/01/23 10:26:23;;;;;;;1.55;0.95;;;8.80;63.20;;;;;;5053347;28;20387;-77
2021/01/23 10:28:49;;;;;;;1.48;0.85;;;8.80;63.60;;;;;;5052988;28;20079;-80
2021/01/23 10:31:15;;;;;;;1.45;1.00;;;8.90;63.50;;;;;;5054565;28;20029;-80
2021/01/23 10:33:40;;;;;;;0.80;0.70;;;8.90;63.70;;;;;;5057387;28;20047;-79
2021/01/23 10:36:06;;;;;;;3.53;0.90;;;8.90;63.70;;;;;;5057159;28;20024;-79
2021/01/23 10:38:32;;;;;;;2.67;1.85;;;9.00;63.00;;;;;;5057249;28;20025;-81
2021/01/23 10:40:58;;;;;;;2.80;1.35;;;9.10;63.70;;;;;;5052230;28;20474;-79
2021/01/23 10:43:24;;;;;;;1.83;1.25;;;9.10;63.60;;;;;;5054003;28;20032;-80
2021/01/23 10:45:49;;;;;;;6.60;3.97;;;9.20;63.40;;;;;;5056766;28;20367;-81
2021/01/23 10:48:15;;;;;;;1.88;1.00;;;9.20;62.50;;;;;;5056673;28;20052;-80
2021/01/23 10:50:42;;;;;;;1.92;0.93;;;9.30;62.10;;;;;;5056642;28;20045;-77
2021/01/23 10:53:08;;;;;;;1.13;1.00;;;9.30;62.40;;;;;;5056668;28;20017;-80
2021/01/23 10:55:34;;;;;;;1.08;0.90;;;9.30;62.40;;;;;;5056597;28;20024;-78
2021/01/23 10:58:00;;;;;;;1.17;0.88;;;9.40;63.10;;;;;;5038718;28;20505;-78
2021/01/23 11:00:25;;;;;;;1.75;0.90;;;9.40;62.20;;;;;;5056828;28;20052;-80
2021/01/23 11:02:51;;;;;;;2.40;1.10;;;9.40;61.40;;;;;;5056457;28;20031;-80
2021/01/23 11:05:17;;;;;;;1.65;0.88;;;9.30;60.40;;;;;;5056353;28;20025;-81
2021/01/23 11:07:44;;;;;;;1.10;0.80;;;9.30;60.20;;;;;;5038516;28;20025;-78
2021/01/23 11:10:11;;;;;;;0.77;0.75;;;9.20;60.10;;;;;;5056614;28;20021;-79
2021/01/23 11:12:37;;;;;;;1.95;1.05;;;9.00;59.50;;;;;;5038415;28;20417;-80
2021/01/23 11:15:03;;;;;;;1.05;0.90;;;9.00;59.70;;;;;;5055057;28;20029;-78
2021/01/23 11:17:29;;;;;;;2.25;1.13;;;9.00;60.40;;;;;;5053026;28;20068;-78
2021/01/23 11:19:55;;;;;;;2.78;1.30;;;9.00;60.60;;;;;;5056176;28;20049;-79
2021/01/23 11:22:21;;;;;;;2.13;1.52;;;8.90;60.60;;;;;;5056038;28;20087;-80
2021/01/23 11:24:47;;;;;;;2.55;1.30;;;8.90;60.40;;;;;;5056046;28;20021;-77
2021/01/23 11:27:12;;;;;;;1.73;1.10;;;8.90;60.60;;;;;;5051674;28;20033;-79
2021/01/23 11:29:38;;;;;;;4.10;1.50;;;9.00;61.30;;;;;;5055032;28;20410;-78
2021/01/23 11:32:05;;;;;;;2.72;1.30;;;9.10;61.10;;;;;;5055867;28;20539;-80
2021/01/23 11:34:30;;;;;;;2.47;1.42;;;9.10;61.10;;;;;;5056204;28;20020;-78
2021/01/23 11:36:57;;;;;;;1.85;1.20;;;9.10;60.90;;;;;;5051191;28;20021;-78
2021/01/23 11:39:22;;;;;;;1.27;1.10;;;9.10;60.10;;;;;;5053101;28;20040;-80
2021/01/23 11:41:48;;;;;;;1.92;1.30;;;9.10;60.10;;;;;;5055987;28;20013;-80
2021/01/23 11:44:14;;;;;;;1.42;1.10;;;9.10;59.70;;;;;;5055649;28;20021;-76
2021/01/23 11:46:40;;;;;;;1.50;1.02;;;9.10;59.60;;;;;;5037724;28;20029;-76
2021/01/23 11:49:06;;;;;;;1.45;1.10;;;9.10;60.00;;;;;;5037855;28;20021;-78
2021/01/23 11:51:33;;;;;;;5.15;1.15;;;9.20;60.00;;;;;;5056678;28;20021;-79
2021/01/23 11:53:59;;;;;;;1.77;1.05;;;9.20;60.70;;;;;;5056532;28;20045;-79
2021/01/23 11:56:26;;;;;;;3.53;1.00;;;9.30;60.90;;;;;;5056810;28;20542;-79
2021/01/23 11:58:53;;;;;;;2.67;1.27;;;9.40;60.70;;;;;;5057655;28;20371;-76
2021/01/23 12:01:19;;;;;;;9.45;1.52;;;9.50;60.50;;;;;;5039655;28;20052;-79
2021/01/23 12:03:44;;;;;;;2.00;1.30;;;9.50;60.60;;;;;;5056897;28;20470;-76
2021/01/23 12:06:10;;;;;;;2.47;1.52;;;9.60;60.00;;;;;;5038990;28;20055;-79
2021/01/23 12:08:36;;;;;;;3.58;1.20;;;9.70;60.10;;;;;;5057056;28;20017;-77
2021/01/23 12:11:02;;;;;;;1.65;1.17;;;9.70;60.30;;;;;;5055509;28;20047;-78
2021/01/23 12:13:28;;;;;;;1.88;1.27;;;9.70;59.90;;;;;;5037664;28;20053;-78
2021/01/23 12:15:54;;;;;;;2.90;1.85;;;9.80;59.70;;;;;;5056578;28;20029;-76
2021/01/23 12:18:20;;;;;;;3.88;1.55;;;9.90;60.20;;;;;;5057375;28;20046;-79
2021/01/23 12:20:48;;;;;;;1.75;1.23;;;9.90;59.80;;;;;;5038898;28;20028;-78
2021/01/23 12:23:14;;;;;;;2.38;1.50;;;10.00;60.20;;;;;;5039155;28;20052;-80
2021/01/23 12:25:40;;;;;;;2.30;1.67;;;10.00;60.60;;;;;;5056162;28;20029;-80
2021/01/23 12:28:06;;;;;;;3.80;1.70;;;10.10;59.60;;;;;;5056936;28;20037;-77
2021/01/23 12:30:31;;;;;;;2.72;1.73;;;10.10;58.90;;;;;;5052818;28;20041;-78
2021/01/23 12:32:57;;;;;;;2.05;1.40;;;10.10;58.30;;;;;;5055904;28;20031;-80
2021/01/23 12:35:23;;;;;;;1.40;1.27;;;10.00;57.60;;;;;;5055792;28;20486;-80
2021/01/23 12:37:49;;;;;;;2.25;1.50;;;10.00;57.50;;;;;;5038191;28;20025;-77
2021/01/23 12:40:15;;;;;;;2.30;1.48;;;9.90;57.70;;;;;;5056368;28;20104;-77
2021/01/23 12:42:41;;;;;;;2.47;1.77;;;9.80;57.60;;;;;;5056455;28;20025;-78
2021/01/23 12:45:10;;;;;;;2.38;1.20;;;9.80;57.70;;;;;;5055710;28;20024;-79
2021/01/23 12:47:36;;;;;;;1.45;1.10;;;9.70;57.20;;;;;;5055075;28;20021;-79
2021/01/23 12:50:02;;;;;;;1.73;1.20;;;9.70;58.10;;;;;;5054895;28;20028;-79
2021/01/23 12:52:29;;;;;;;3.15;1.10;;;9.70;58.40;;;;;;5054577;28;20017;-79
2021/01/23 12:54:55;;;;;;;1.50;1.08;;;9.80;58.50;;;;;;5036070;28;20032;-79